Time;durP1;ratioP1;P1;durP2;ratioP2;P2;SDS_P1;SDS_P2;PMS_P1;PMS_P2;Temp;Humidity;BMP_temperature;BMP_pressure;BME280_temperature;BME280_humidity;BME280_pressure;Samples;Min_cycle;Max_cycle;Signal;HPM_P1;HPM_P2
2022/01/10 00:01:43;;;;;;;5.57;4.03;;;1.30;99.90;;;;;;5067271;28;20668;-72
2022/01/10 00:04:10;;;;;;;5.13;4.38;;;1.30;99.90;;;;;;5068189;28;20228;-72
2022/01/10 00:06:37;;;;;;;6.53;4.07;;;1.30;99.90;;;;;;5068683;28;20204;-72
2022/01/10 00:09:04;;;;;;;6.13;3.85;;;1.30;99.90;;;;;;5068253;28;20587;-71
2022/01/10 00:11:31;;;;;;;5.00;4.35;;;1.30;99.90;;;;;;5068378;28;20208;-72
2022/01/10 00:13:59;;;;;;;6.43;4.85;;;1.30;99.90;;;;;;5068953;28;20232;-71
2022/01/10 00:16:26;;;;;;;6.50;4.75;;;1.30;99.90;;;;;;5069181;28;20228;-71
2022/01/10 00:18:53;;;;;;;5.53;4.18;;;1.30;99.90;;;;;;5068452;28;20671;-71
2022/01/10 00:21:20;;;;;;;9.95;5.47;;;1.20;99.90;;;;;;5067684;28;20207;-72
2022/01/10 00:23:47;;;;;;;10.95;4.65;;;1.30;99.90;;;;;;5068610;28;20236;-71
2022/01/10 00:26:13;;;;;;;5.57;4.25;;;1.30;99.90;;;;;;5068006;28;20227;-71
2022/01/10 00:28:40;;;;;;;5.38;4.25;;;1.30;99.90;;;;;;5068008;28;20291;-71
2022/01/10 00:31:09;;;;;;;9.05;5.03;;;1.30;99.90;;;;;;5067836;28;20208;-70
2022/01/10 00:33:35;;;;;;;6.25;4.70;;;1.30;99.90;;;;;;5068083;28;20232;-71
2022/01/10 00:36:02;;;;;;;5.57;4.65;;;1.30;99.90;;;;;;5068204;28;20228;-71
2022/01/10 00:38:29;;;;;;;5.00;4.28;;;1.30;99.90;;;;;;5068351;28;20581;-71
2022/01/10 00:40:56;;;;;;;4.50;3.92;;;1.30;99.90;;;;;;5067672;28;20204;-72
2022/01/10 00:43:31;;;;;;;6.40;4.45;;;1.30;99.90;;;;;;5067745;28;20208;-71
2022/01/10 00:48:34;;;;;;;5.88;4.90;;;1.20;99.90;;;;;;5091109;22;20867;-75
2022/01/10 00:51:01;;;;;;;5.63;4.20;;;1.20;99.90;;;;;;5031283;28;20673;-75
2022/01/10 00:53:28;;;;;;;6.00;4.22;;;1.20;99.90;;;;;;5031585;28;20213;-76
2022/01/10 00:55:55;;;;;;;8.48;4.35;;;1.20;99.90;;;;;;5031817;28;20222;-75
2022/01/10 00:58:21;;;;;;;6.65;4.32;;;1.20;99.90;;;;;;5031295;28;20209;-75
2022/01/10 01:00:48;;;;;;;7.70;4.10;;;1.20;99.90;;;;;;5037387;28;20247;-75
2022/01/10 01:03:15;;;;;;;7.03;4.43;;;1.20;99.90;;;;;;5030280;28;20210;-75
2022/01/10 01:05:44;;;;;;;7.50;3.95;;;1.20;99.90;;;;;;5030686;28;20208;-76
2022/01/10 01:08:12;;;;;;;5.13;4.25;;;1.20;99.90;;;;;;5030199;28;20691;-75
2022/01/10 01:13:39;;;;;;;6.35;3.53;;;1.20;99.90;;;;;;5030687;28;20233;-76
2022/01/10 01:16:14;;;;;;;4.97;4.30;;;1.20;99.90;;;;;;5030500;28;20383;-76
2022/01/10 01:24:26;;;;;;;5.25;4.00;;;1.20;99.90;;;;;;4989117;28;20230;-74
2022/01/10 01:26:54;;;;;;;5.85;4.05;;;1.20;99.90;;;;;;5020104;28;20200;-74
2022/01/10 01:29:23;;;;;;;5.22;3.67;;;1.20;99.90;;;;;;5030024;28;20702;-76
2022/01/10 01:31:50;;;;;;;5.10;4.38;;;1.20;99.90;;;;;;5029202;28;20276;-75
2022/01/10 01:34:18;;;;;;;7.68;4.68;;;1.20;99.90;;;;;;5032224;28;20590;-76
2022/01/10 01:36:50;;;;;;;6.07;4.20;;;1.20;99.90;;;;;;5049614;28;20236;-75
2022/01/10 01:39:20;;;;;;;4.90;4.30;;;1.20;99.90;;;;;;5050061;28;20640;-76
2022/01/10 01:41:48;;;;;;;6.60;4.35;;;1.20;99.90;;;;;;5048617;28;20201;-76
2022/01/10 01:44:15;;;;;;;6.00;4.20;;;1.10;99.90;;;;;;5049654;28;20216;-76
2022/01/10 01:46:42;;;;;;;6.50;4.47;;;1.20;99.90;;;;;;5049783;28;20558;-76
2022/01/10 01:49:11;;;;;;;8.98;4.85;;;1.20;99.90;;;;;;5048722;28;20197;-75
2022/01/10 01:51:38;;;;;;;5.78;4.65;;;1.10;99.90;;;;;;5048473;28;20209;-75
2022/01/10 01:54:07;;;;;;;6.50;4.75;;;1.10;99.90;;;;;;5049629;28;20221;-75
2022/01/10 01:56:34;;;;;;;5.20;4.28;;;1.10;99.90;;;;;;5049395;28;20221;-75
2022/01/10 01:59:01;;;;;;;6.78;4.55;;;1.20;99.90;;;;;;5049443;28;20215;-75
2022/01/10 02:01:28;;;;;;;5.32;4.30;;;1.20;99.90;;;;;;5049035;28;20197;-76
2022/01/10 02:03:55;;;;;;;6.05;3.95;;;1.20;99.90;;;;;;5051162;28;20225;-76
2022/01/10 02:06:22;;;;;;;7.78;4.65;;;1.20;99.90;;;;;;5049930;28;20200;-76
2022/01/10 02:08:49;;;;;;;4.85;4.30;;;1.20;99.90;;;;;;5050047;28;20695;-75
2022/01/10 02:11:17;;;;;;;7.55;4.45;;;1.20;99.90;;;;;;5049681;28;20201;-75
2022/01/10 02:13:45;;;;;;;8.27;4.63;;;1.20;99.90;;;;;;5049975;28;20739;-75
2022/01/10 02:16:17;;;;;;;4.60;3.85;;;1.10;99.90;;;;;;5049841;28;20225;-75
2022/01/10 02:18:44;;;;;;;6.20;5.38;;;1.10;99.90;;;;;;5050329;28;20243;-76
2022/01/10 02:21:14;;;;;;;5.80;4.18;;;1.20;99.90;;;;;;5051018;28;20209;-75
2022/01/10 02:23:42;;;;;;;6.30;4.40;;;1.20;99.90;;;;;;5052454;28;20319;-75
2022/01/10 02:26:09;;;;;;;8.50;4.32;;;1.20;99.90;;;;;;5052430;28;20205;-76
2022/01/10 02:28:36;;;;;;;5.93;4.22;;;1.20;99.90;;;;;;5053788;28;20212;-75
2022/01/10 02:31:03;;;;;;;9.70;5.35;;;1.20;99.90;;;;;;5053044;28;20208;-76
2022/01/10 02:33:31;;;;;;;5.65;4.05;;;1.20;99.90;;;;;;5051155;28;20202;-75
2022/01/10 02:36:06;;;;;;;6.85;4.25;;;1.20;99.90;;;;;;5050325;28;20722;-74
2022/01/10 02:38:35;;;;;;;4.65;4.13;;;1.20;99.90;;;;;;5050531;28;20200;-76
2022/01/10 02:41:02;;;;;;;9.15;4.70;;;1.20;99.90;;;;;;5049804;28;20209;-76
2022/01/10 02:43:29;;;;;;;8.20;4.50;;;1.20;99.90;;;;;;5050437;28;20288;-76
2022/01/10 02:45:56;;;;;;;4.85;4.35;;;1.20;99.90;;;;;;5053435;28;20209;-76
2022/01/10 02:48:23;;;;;;;5.78;3.63;;;1.20;99.90;;;;;;5054036;28;20633;-75
2022/01/10 02:50:50;;;;;;;6.72;4.30;;;1.20;99.90;;;;;;5053738;28;20197;-75
2022/01/10 02:53:17;;;;;;;5.50;4.30;;;1.30;99.90;;;;;;5055867;28;20197;-75
2022/01/10 02:55:45;;;;;;;8.20;5.18;;;1.30;99.90;;;;;;5054073;28;20567;-76
2022/01/10 02:58:12;;;;;;;4.70;4.20;;;1.30;99.90;;;;;;5053223;28;20577;-76
2022/01/10 03:00:39;;;;;;;7.60;4.70;;;1.30;99.90;;;;;;5053431;28;20296;-75
2022/01/10 03:03:06;;;;;;;5.53;4.10;;;1.30;99.90;;;;;;5053093;28;20200;-76
2022/01/10 03:05:34;;;;;;;8.75;4.25;;;1.30;99.90;;;;;;5053188;28;20221;-76
2022/01/10 03:08:02;;;;;;;5.47;3.60;;;1.30;99.90;;;;;;5053477;28;20215;-76
2022/01/10 03:10:30;;;;;;;5.45;4.07;;;1.30;99.90;;;;;;5053410;28;20201;-76
2022/01/10 03:12:59;;;;;;;6.15;4.20;;;1.30;99.90;;;;;;5052929;28;20276;-76
2022/01/10 03:15:26;;;;;;;5.00;4.30;;;1.30;99.90;;;;;;5053275;28;20335;-75
2022/01/10 03:17:53;;;;;;;4.00;3.60;;;1.30;99.90;;;;;;5053290;28;20225;-76
2022/01/10 03:20:22;;;;;;;5.90;4.43;;;1.30;99.90;;;;;;5053096;28;20212;-75
2022/01/10 03:22:48;;;;;;;10.13;5.22;;;1.30;99.90;;;;;;5051859;28;20201;-74
2022/01/10 03:25:15;;;;;;;4.30;3.90;;;1.30;99.90;;;;;;5053163;28;20229;-76
2022/01/10 03:27:42;;;;;;;5.75;4.30;;;1.30;99.90;;;;;;5053083;28;20204;-74
2022/01/10 03:30:11;;;;;;;4.47;4.07;;;1.40;99.90;;;;;;5053062;28;20205;-76
2022/01/10 03:32:38;;;;;;;8.20;4.32;;;1.40;99.90;;;;;;5052588;28;20205;-76
2022/01/10 03:35:06;;;;;;;6.57;4.15;;;1.40;99.90;;;;;;5052643;28;20232;-76
2022/01/10 03:37:33;;;;;;;6.05;4.55;;;1.40;99.90;;;;;;5053064;28;20282;-76
2022/01/10 03:39:59;;;;;;;6.95;4.03;;;1.50;99.90;;;;;;5052848;28;20338;-76
2022/01/10 03:42:26;;;;;;;7.82;4.78;;;1.40;99.90;;;;;;5052373;28;20209;-76
2022/01/10 03:44:53;;;;;;;3.97;3.60;;;1.40;99.90;;;;;;5052625;28;20217;-76
2022/01/10 03:47:22;;;;;;;7.38;3.88;;;1.40;99.90;;;;;;5052727;28;20228;-76
2022/01/10 03:49:49;;;;;;;6.60;3.65;;;1.40;99.90;;;;;;5052875;28;20208;-74
2022/01/10 03:52:16;;;;;;;4.88;3.95;;;1.40;99.90;;;;;;5052408;28;20299;-75
2022/01/10 03:54:43;;;;;;;6.10;4.20;;;1.40;99.90;;;;;;5052342;28;20724;-74
2022/01/10 03:57:10;;;;;;;4.68;3.53;;;1.40;99.90;;;;;;5052085;28;20228;-76
2022/01/10 03:59:37;;;;;;;9.43;5.38;;;1.50;99.90;;;;;;5052686;28;20208;-76
2022/01/10 04:02:04;;;;;;;4.53;3.97;;;1.50;99.90;;;;;;5051839;28;20204;-76
2022/01/10 04:04:35;;;;;;;7.75;5.00;;;1.50;99.90;;;;;;5052391;28;20704;-75
2022/01/10 04:07:02;;;;;;;6.32;4.72;;;1.50;99.90;;;;;;5052254;28;20258;-75
2022/01/10 04:09:29;;;;;;;5.15;4.40;;;1.50;99.90;;;;;;5052593;28;20205;-76
2022/01/10 04:11:55;;;;;;;5.63;4.75;;;1.50;99.90;;;;;;5051576;28;20201;-75
2022/01/10 04:14:22;;;;;;;6.70;4.40;;;1.50;99.90;;;;;;5052199;28;20712;-75
2022/01/10 04:16:49;;;;;;;6.22;4.53;;;1.50;99.90;;;;;;5051957;28;20213;-75
2022/01/10 04:19:16;;;;;;;8.40;4.88;;;1.60;99.90;;;;;;5052153;28;20205;-76
2022/01/10 04:21:44;;;;;;;5.35;3.70;;;1.60;99.90;;;;;;5051548;28;20208;-76
2022/01/10 04:24:11;;;;;;;5.60;4.72;;;1.50;99.90;;;;;;5051504;28;20256;-75
2022/01/10 04:26:37;;;;;;;8.23;4.18;;;1.60;99.90;;;;;;5033496;28;20273;-74
2022/01/10 04:29:04;;;;;;;5.03;4.45;;;1.60;99.90;;;;;;5032079;28;20206;-74
2022/01/10 04:31:31;;;;;;;7.70;4.60;;;1.60;99.90;;;;;;5031203;28;20554;-74
2022/01/10 04:33:58;;;;;;;10.30;4.60;;;1.50;99.90;;;;;;5030929;28;20910;-74
2022/01/10 04:36:24;;;;;;;5.72;4.43;;;1.50;99.90;;;;;;5031590;28;20683;-75
2022/01/10 04:38:52;;;;;;;6.28;4.13;;;1.50;99.90;;;;;;5032944;28;20205;-76
2022/01/10 04:41:19;;;;;;;5.47;4.40;;;1.50;99.90;;;;;;5041188;28;20228;-76
2022/01/10 04:43:46;;;;;;;5.57;4.50;;;1.60;99.90;;;;;;5041122;28;20244;-76
2022/01/10 04:46:13;;;;;;;8.20;5.57;;;1.60;99.90;;;;;;5040673;28;20194;-75
2022/01/10 04:48:40;;;;;;;6.93;4.55;;;1.60;99.90;;;;;;5042587;28;20212;-77
2022/01/10 04:51:14;;;;;;;5.00;4.50;;;1.60;99.90;;;;;;5041827;28;20194;-76
2022/01/10 04:53:43;;;;;;;6.72;4.75;;;1.50;99.90;;;;;;5050044;28;20220;-76
2022/01/10 04:56:12;;;;;;;8.13;4.65;;;1.50;99.90;;;;;;5050169;28;20205;-77
2022/01/10 04:58:39;;;;;;;5.72;4.45;;;1.50;99.90;;;;;;5047971;28;20220;-77
2022/01/10 05:01:06;;;;;;;7.20;3.90;;;1.50;99.90;;;;;;5044168;28;20198;-77
2022/01/10 05:03:34;;;;;;;6.30;3.80;;;1.50;99.90;;;;;;5043147;28;20217;-76
2022/01/10 05:06:00;;;;;;;6.32;3.90;;;1.40;99.90;;;;;;5040031;28;20273;-76
2022/01/10 05:08:27;;;;;;;6.03;4.05;;;1.40;99.90;;;;;;5032633;28;20193;-76
2022/01/10 05:10:54;;;;;;;9.40;4.75;;;1.50;99.90;;;;;;5040808;28;20198;-74
2022/01/10 05:13:23;;;;;;;7.45;4.35;;;1.40;99.90;;;;;;5040060;28;20201;-76
2022/01/10 05:15:50;;;;;;;6.68;4.28;;;1.50;99.90;;;;;;5040620;28;20198;-75
2022/01/10 05:18:18;;;;;;;4.63;3.92;;;1.50;99.90;;;;;;5040563;28;20220;-75
2022/01/10 05:20:45;;;;;;;10.18;4.80;;;1.50;99.90;;;;;;5041300;28;20950;-72
2022/01/10 05:23:12;;;;;;;5.47;4.20;;;1.50;99.90;;;;;;5039714;28;20203;-71
2022/01/10 05:25:40;;;;;;;6.80;3.92;;;1.50;99.90;;;;;;5036775;28;20197;-71
2022/01/10 05:28:08;;;;;;;5.45;3.90;;;1.60;99.90;;;;;;5038921;28;20194;-70
2022/01/10 05:30:37;;;;;;;6.38;4.13;;;1.60;99.90;;;;;;5050698;28;20208;-70
2022/01/10 05:33:04;;;;;;;4.68;3.55;;;1.60;99.90;;;;;;5050290;28;20204;-71
2022/01/10 05:35:30;;;;;;;5.60;4.10;;;1.60;99.90;;;;;;5050677;28;20225;-72
2022/01/10 05:37:57;;;;;;;4.15;3.60;;;1.60;99.90;;;;;;5050697;28;20225;-71
2022/01/10 05:40:24;;;;;;;7.63;4.57;;;1.60;99.90;;;;;;5050333;28;20212;-72
2022/01/10 05:42:51;;;;;;;4.88;3.80;;;1.60;99.90;;;;;;5050169;28;20613;-72
2022/01/10 05:45:17;;;;;;;6.10;3.50;;;1.60;99.90;;;;;;5050549;28;20221;-72
2022/01/10 05:47:46;;;;;;;5.47;4.13;;;1.60;99.90;;;;;;5050695;28;20212;-72
2022/01/10 05:50:18;;;;;;;6.85;4.70;;;1.60;99.90;;;;;;5050862;28;20609;-72
2022/01/10 05:52:45;;;;;;;7.18;4.85;;;1.60;99.90;;;;;;5050257;28;20224;-72
2022/01/10 05:55:13;;;;;;;5.18;3.72;;;1.60;99.90;;;;;;5050675;28;20935;-72
2022/01/10 05:57:40;;;;;;;4.40;4.00;;;1.60;99.90;;;;;;5050435;28;20236;-72
2022/01/10 06:00:08;;;;;;;6.95;4.32;;;1.60;99.90;;;;;;5050193;28;20212;-72
2022/01/10 06:02:34;;;;;;;10.88;5.15;;;1.60;99.90;;;;;;5049719;28;20212;-72
2022/01/10 06:05:08;;;;;;;5.30;4.45;;;1.60;99.90;;;;;;5049993;28;20225;-71
2022/01/10 06:07:36;;;;;;;5.85;3.90;;;1.60;99.90;;;;;;5050019;28;20197;-71
2022/01/10 06:10:04;;;;;;;7.72;4.85;;;1.60;99.90;;;;;;5050520;28;20707;-73
2022/01/10 06:12:31;;;;;;;9.57;5.05;;;1.60;99.90;;;;;;5049444;28;20208;-72
2022/01/10 06:14:58;;;;;;;10.32;4.35;;;1.60;99.90;;;;;;5049800;28;20228;-72
2022/01/10 06:17:24;;;;;;;7.85;4.80;;;1.60;99.90;;;;;;5049726;28;20228;-72
2022/01/10 06:19:51;;;;;;;7.25;4.70;;;1.60;99.90;;;;;;5053484;28;20208;-72
2022/01/10 06:22:19;;;;;;;7.50;4.65;;;1.60;99.90;;;;;;5053416;28;20212;-73
2022/01/10 06:24:46;;;;;;;6.40;4.50;;;1.60;99.90;;;;;;5054211;28;20275;-73
2022/01/10 06:27:12;;;;;;;5.68;4.40;;;1.60;99.90;;;;;;5054043;28;20608;-72
2022/01/10 06:29:39;;;;;;;9.80;5.63;;;1.60;99.90;;;;;;5054131;28;20208;-72
2022/01/10 06:32:07;;;;;;;10.20;5.15;;;1.60;99.90;;;;;;5053195;28;20224;-73
2022/01/10 06:34:34;;;;;;;10.13;6.18;;;1.70;99.90;;;;;;5053770;28;20221;-72
2022/01/10 06:37:01;;;;;;;9.00;5.72;;;1.70;99.90;;;;;;5053526;28;20212;-73
2022/01/10 06:39:29;;;;;;;10.60;5.72;;;1.70;99.90;;;;;;5053911;28;20204;-72
2022/01/10 06:41:56;;;;;;;10.07;5.72;;;1.70;99.90;;;;;;5053082;28;20284;-72
2022/01/10 06:44:23;;;;;;;7.18;5.50;;;1.80;99.90;;;;;;5053692;28;20228;-73
2022/01/10 06:46:52;;;;;;;5.95;5.35;;;1.70;99.90;;;;;;5091071;22;21308;-94
2022/01/10 06:49:36;;;;;;;10.10;6.13;;;1.80;99.90;;;;;;5049640;28;20212;-94
2022/01/10 06:52:03;;;;;;;10.98;6.05;;;1.80;99.90;;;;;;5048485;28;20232;-94
2022/01/10 06:54:54;;;;;;;9.40;6.32;;;1.90;99.90;;;;;;5051807;28;20212;-93
2022/01/10 07:00:05;;;;;;;9.25;6.97;;;1.90;99.90;;;;;;5039233;28;20685;-94
2022/01/10 07:02:32;;;;;;;13.45;6.68;;;1.90;99.90;;;;;;5041738;28;20216;-93
2022/01/10 07:04:59;;;;;;;8.15;5.50;;;1.90;99.90;;;;;;5039841;28;20218;-93
2022/01/10 07:10:46;;;;;;;11.25;8.05;;;2.00;99.90;;;;;;5020454;28;20201;-93
2022/01/10 07:13:43;;;;;;;10.77;7.15;;;2.00;99.90;;;;;;5037388;28;20800;-93
2022/01/10 07:16:21;;;;;;;16.27;8.50;;;2.00;99.90;;;;;;5037621;28;20205;-92
2022/01/10 07:19:00;;;;;;;11.02;7.95;;;2.10;99.90;;;;;;5037816;28;20225;-93
2022/01/10 07:21:48;;;;;;;13.60;8.45;;;2.10;99.90;;;;;;5037598;28;20206;-93
2022/01/10 07:24:16;;;;;;;13.13;8.63;;;2.00;99.90;;;;;;5050976;28;20214;-93
2022/01/10 07:30:00;;;;;;;19.25;10.45;;;2.10;99.90;;;;;;5036026;28;20557;-94
2022/01/10 07:32:53;;;;;;;;;;;;;;;;;;;;;
2022/01/10 07:35:22;;;;;;;21.70;12.65;;;2.10;99.90;;;;;;5037334;28;20194;-94
2022/01/10 07:40:42;;;;;;;17.13;10.40;;;2.10;99.90;;;;;;5035147;28;20194;-93
2022/01/10 07:43:17;;;;;;;16.52;10.60;;;2.10;99.90;;;;;;5036258;28;20255;-92
2022/01/10 07:45:54;;;;;;;18.90;11.20;;;2.10;99.90;;;;;;5035905;28;20580;-92
2022/01/10 07:48:34;;;;;;;13.45;9.57;;;2.10;99.90;;;;;;5035635;28;20628;-92
2022/01/10 07:51:03;;;;;;;18.80;9.70;;;2.10;99.90;;;;;;5035943;28;20284;-92
2022/01/10 07:53:31;;;;;;;14.63;9.65;;;2.10;99.90;;;;;;5035540;28;20213;-93
2022/01/10 07:55:58;;;;;;;17.85;10.07;;;2.10;99.90;;;;;;5040697;28;20202;-92
2022/01/10 07:58:26;;;;;;;17.40;9.32;;;2.10;99.90;;;;;;5039373;28;20237;-93
2022/01/10 08:01:10;;;;;;;11.55;8.60;;;2.20;99.90;;;;;;5035205;28;20220;-92
2022/01/10 08:03:37;;;;;;;16.27;9.82;;;2.20;99.90;;;;;;5035927;28;20284;-91
2022/01/10 08:06:17;;;;;;;13.18;9.30;;;2.20;99.90;;;;;;5058751;28;20193;-94
2022/01/10 08:08:58;;;;;;;12.23;8.38;;;2.20;99.90;;;;;;5058600;28;20206;-93
2022/01/10 08:11:39;;;;;;;11.35;8.75;;;2.20;99.90;;;;;;5058713;28;20178;-94
2022/01/10 08:14:07;;;;;;;15.35;9.30;;;2.20;99.90;;;;;;5070045;23;20244;-74
2022/01/10 08:16:34;;;;;;;13.05;8.95;;;2.30;99.90;;;;;;5031744;28;20661;-74
2022/01/10 08:19:01;;;;;;;12.32;7.72;;;2.30;99.90;;;;;;5031617;28;20244;-74
2022/01/10 08:21:28;;;;;;;15.55;9.82;;;2.30;99.90;;;;;;5031164;28;20209;-79
2022/01/10 08:23:54;;;;;;;17.90;9.70;;;2.30;99.90;;;;;;5032380;28;20225;-74
2022/01/10 08:26:21;;;;;;;12.68;9.20;;;2.30;99.90;;;;;;5031778;28;20202;-73
2022/01/10 08:28:48;;;;;;;14.65;9.52;;;2.40;99.90;;;;;;5031703;28;20197;-71
2022/01/10 08:31:16;;;;;;;12.98;8.75;;;2.50;99.90;;;;;;5031187;28;20202;-73
2022/01/10 08:33:45;;;;;;;16.23;9.70;;;2.60;99.90;;;;;;5031494;28;20233;-73
2022/01/10 08:36:12;;;;;;;16.08;10.25;;;2.60;99.90;;;;;;5031532;28;20477;-73
2022/01/10 08:38:39;;;;;;;16.98;9.85;;;2.50;99.90;;;;;;5031394;28;20308;-72
2022/01/10 08:41:05;;;;;;;15.48;10.00;;;2.50;99.90;;;;;;5031308;28;20673;-73
2022/01/10 08:43:32;;;;;;;15.82;9.70;;;2.60;99.90;;;;;;5032197;28;20222;-74
2022/01/10 08:45:59;;;;;;;14.77;10.98;;;2.60;99.90;;;;;;5032020;28;20209;-72
2022/01/10 08:48:27;;;;;;;14.88;9.30;;;2.60;99.90;;;;;;5031783;28;20692;-74
2022/01/10 08:50:54;;;;;;;11.98;8.07;;;2.60;99.90;;;;;;5031537;28;20197;-73
2022/01/10 08:53:20;;;;;;;15.60;9.15;;;2.70;99.90;;;;;;5031367;28;20197;-75
2022/01/10 08:55:48;;;;;;;11.50;8.35;;;2.70;99.90;;;;;;5031569;28;20205;-74
2022/01/10 08:58:14;;;;;;;12.20;8.30;;;2.70;99.90;;;;;;5031650;28;20217;-74
2022/01/10 09:00:41;;;;;;;12.80;9.82;;;2.80;99.90;;;;;;5031471;28;20201;-74
2022/01/10 09:03:08;;;;;;;15.82;9.30;;;2.80;99.90;;;;;;5031402;28;20198;-76
2022/01/10 09:05:37;;;;;;;12.60;8.70;;;2.90;99.90;;;;;;5032974;28;20218;-71
2022/01/10 09:08:05;;;;;;;20.92;9.27;;;2.90;99.90;;;;;;5028786;28;20212;-71
2022/01/10 09:10:32;;;;;;;13.02;9.35;;;2.90;99.90;;;;;;5030815;28;20706;-73
2022/01/10 09:12:59;;;;;;;17.13;10.10;;;2.90;99.90;;;;;;5048846;28;20580;-72
2022/01/10 09:15:26;;;;;;;12.50;9.23;;;2.90;99.90;;;;;;5050611;28;20716;-73
2022/01/10 09:17:52;;;;;;;14.00;9.90;;;2.90;99.90;;;;;;5050387;28;20699;-73
2022/01/10 09:20:19;;;;;;;18.60;12.20;;;2.90;99.90;;;;;;5035573;28;20292;-72
2022/01/10 09:22:47;;;;;;;18.98;10.32;;;2.90;99.90;;;;;;5031059;28;20206;-73
2022/01/10 09:25:14;;;;;;;15.52;10.50;;;3.00;99.90;;;;;;5031113;28;20233;-73
2022/01/10 09:27:42;;;;;;;21.75;13.50;;;3.00;99.90;;;;;;5030025;28;20416;-72
2022/01/10 09:30:10;;;;;;;19.55;11.85;;;3.00;99.90;;;;;;5032364;28;20200;-72
2022/01/10 09:32:37;;;;;;;14.98;8.90;;;3.00;99.90;;;;;;5037606;28;20573;-72
2022/01/10 09:35:04;;;;;;;14.85;9.70;;;3.00;99.90;;;;;;5030077;28;20232;-73
2022/01/10 09:37:31;;;;;;;15.18;8.15;;;3.10;99.90;;;;;;5029934;28;20604;-73
2022/01/10 09:39:59;;;;;;;12.15;8.50;;;3.10;99.90;;;;;;5029889;28;20225;-73
2022/01/10 09:42:26;;;;;;;10.00;7.97;;;3.10;99.90;;;;;;5029866;28;20198;-73
2022/01/10 09:44:53;;;;;;;13.25;8.35;;;3.10;99.90;;;;;;5029782;28;20364;-71
2022/01/10 09:47:20;;;;;;;14.75;9.20;;;3.10;99.90;;;;;;5030240;28;20203;-73
2022/01/10 09:49:47;;;;;;;18.48;8.15;;;3.10;99.90;;;;;;5029846;28;20201;-73
2022/01/10 09:52:16;;;;;;;13.95;8.18;;;3.20;99.90;;;;;;5029259;28;20209;-73
2022/01/10 09:54:42;;;;;;;16.25;7.90;;;3.20;99.90;;;;;;5029431;28;20279;-74
2022/01/10 09:57:11;;;;;;;12.07;7.97;;;3.20;99.90;;;;;;5029809;28;20252;-73
2022/01/10 09:59:40;;;;;;;11.30;7.55;;;3.10;99.90;;;;;;5029038;28;20221;-72
2022/01/10 10:02:08;;;;;;;13.18;9.68;;;3.10;99.90;;;;;;5029308;28;20643;-73
2022/01/10 10:04:36;;;;;;;13.95;7.65;;;3.10;99.90;;;;;;5029586;28;20257;-73
2022/01/10 10:07:05;;;;;;;14.10;9.00;;;3.10;99.90;;;;;;5029424;28;20202;-73
2022/01/10 10:09:32;;;;;;;14.93;9.90;;;3.10;99.90;;;;;;5029539;28;20193;-73
2022/01/10 10:11:58;;;;;;;17.98;10.02;;;3.10;99.90;;;;;;5028855;28;20210;-72
2022/01/10 10:14:27;;;;;;;14.68;8.82;;;3.10;99.90;;;;;;5028854;28;20739;-73
2022/01/10 10:16:56;;;;;;;13.38;10.00;;;3.10;99.90;;;;;;5029520;28;20202;-73
2022/01/10 10:19:24;;;;;;;12.68;10.50;;;3.10;99.90;;;;;;5029004;28;20222;-72
2022/01/10 10:21:52;;;;;;;10.85;9.15;;;3.10;99.90;;;;;;5028438;28;20573;-73
2022/01/10 10:24:20;;;;;;;19.45;9.20;;;3.10;99.90;;;;;;5029140;28;20232;-73
2022/01/10 10:26:47;;;;;;;13.10;9.43;;;3.10;99.90;;;;;;5029382;28;20601;-73
2022/01/10 10:29:17;;;;;;;13.75;9.23;;;3.20;99.90;;;;;;5028950;28;20609;-72
2022/01/10 10:31:47;;;;;;;14.07;9.55;;;3.30;99.90;;;;;;5028413;28;20225;-72
2022/01/10 10:34:19;;;;;;;17.67;9.98;;;3.30;99.90;;;;;;5029102;28;20229;-73
2022/01/10 10:36:47;;;;;;;16.60;10.90;;;3.50;99.90;;;;;;5028742;28;20206;-72
2022/01/10 10:39:13;;;;;;;14.82;10.25;;;3.60;99.90;;;;;;5029454;28;20229;-73
2022/01/10 10:41:42;;;;;;;13.50;10.10;;;3.70;99.90;;;;;;5028901;28;20297;-72
2022/01/10 10:44:08;;;;;;;14.45;9.73;;;3.80;99.90;;;;;;5028928;28;20275;-73
2022/01/10 10:46:36;;;;;;;12.93;8.98;;;3.90;99.90;;;;;;5029157;28;20298;-73
2022/01/10 10:49:05;;;;;;;14.10;9.20;;;3.90;99.90;;;;;;5029150;28;20202;-72
2022/01/10 10:51:34;;;;;;;14.88;10.93;;;3.90;99.90;;;;;;5027800;28;20227;-72
2022/01/10 10:54:06;;;;;;;16.65;11.55;;;3.90;99.90;;;;;;5029851;28;20225;-74
2022/01/10 10:56:34;;;;;;;18.58;10.40;;;4.00;99.90;;;;;;5029388;28;20206;-74
2022/01/10 10:59:01;;;;;;;15.57;11.40;;;3.80;99.90;;;;;;5029351;28;20253;-72
2022/01/10 11:01:28;;;;;;;22.23;14.75;;;3.80;99.90;;;;;;5028290;28;20221;-74
2022/01/10 11:03:55;;;;;;;16.15;11.80;;;3.80;99.90;;;;;;5029855;28;20221;-74
2022/01/10 11:06:26;;;;;;;19.40;12.02;;;3.80;99.90;;;;;;5030926;28;20206;-72
2022/01/10 11:08:52;;;;;;;23.05;14.25;;;3.80;99.90;;;;;;5032054;28;20209;-73
2022/01/10 11:11:21;;;;;;;18.35;12.20;;;3.80;99.90;;;;;;5032173;28;20214;-71
2022/01/10 11:13:50;;;;;;;16.55;11.07;;;3.80;99.90;;;;;;5032066;28;20860;-74
2022/01/10 11:16:17;;;;;;;24.25;14.43;;;3.80;99.90;;;;;;5032431;28;20209;-73
2022/01/10 11:18:44;;;;;;;24.02;12.93;;;3.90;99.90;;;;;;5032383;28;20225;-73
2022/01/10 11:21:13;;;;;;;16.45;10.10;;;3.90;99.90;;;;;;5030050;28;20209;-71
2022/01/10 11:23:44;;;;;;;15.50;10.90;;;4.00;99.90;;;;;;5044285;28;20228;-73
2022/01/10 11:26:12;;;;;;;18.13;10.07;;;4.00;99.90;;;;;;5051848;28;20236;-73
2022/01/10 11:28:49;;;;;;;14.60;10.20;;;4.00;99.90;;;;;;5050802;28;20209;-74
2022/01/10 11:31:20;;;;;;;14.00;10.57;;;4.10;99.90;;;;;;5050382;28;20212;-73
2022/01/10 11:33:48;;;;;;;12.50;9.38;;;4.10;99.90;;;;;;5051175;28;20217;-73
2022/01/10 11:36:15;;;;;;;12.88;10.18;;;4.00;99.90;;;;;;5050618;28;20217;-72
2022/01/10 11:38:46;;;;;;;13.60;10.18;;;4.00;99.90;;;;;;5051548;28;20197;-75
2022/01/10 11:41:15;;;;;;;13.57;9.70;;;4.00;99.90;;;;;;5050616;28;20208;-74
2022/01/10 11:43:47;;;;;;;14.82;8.25;;;4.00;99.90;;;;;;5050965;28;20231;-75
2022/01/10 11:46:35;;;;;;;11.50;8.05;;;4.00;99.90;;;;;;5050880;28;20208;-74
2022/01/10 11:49:03;;;;;;;10.65;8.05;;;4.00;99.90;;;;;;5050907;28;20205;-75
2022/01/10 11:51:34;;;;;;;11.82;8.68;;;4.00;99.90;;;;;;5051262;28;20248;-77
2022/01/10 11:54:22;;;;;;;14.98;10.10;;;4.00;99.90;;;;;;5037009;28;20721;-74
2022/01/10 11:56:50;;;;;;;13.68;9.40;;;4.20;99.90;;;;;;5032093;28;20443;-73
2022/01/10 11:59:23;;;;;;;15.88;8.38;;;4.30;99.90;;;;;;5031095;28;20682;-75
2022/01/10 12:01:54;;;;;;;12.38;8.63;;;4.50;99.90;;;;;;5031867;28;20572;-73
2022/01/10 12:04:22;;;;;;;13.13;7.93;;;4.70;99.90;;;;;;5030997;28;20225;-73
2022/01/10 12:06:50;;;;;;;10.00;8.63;;;4.80;99.90;;;;;;5031367;28;20237;-72
2022/01/10 12:09:17;;;;;;;18.65;8.43;;;4.90;99.90;;;;;;5030909;28;20315;-72
2022/01/10 12:11:48;;;;;;;10.10;7.85;;;4.90;99.90;;;;;;5031250;28;20213;-72
2022/01/10 12:14:15;;;;;;;15.18;7.95;;;4.90;99.90;;;;;;5030754;28;20221;-72
2022/01/10 12:16:42;;;;;;;10.57;8.02;;;4.90;99.90;;;;;;5031414;28;20576;-74
2022/01/10 12:19:10;;;;;;;11.55;8.15;;;5.00;99.90;;;;;;5031434;28;20244;-73
2022/01/10 12:21:37;;;;;;;12.65;8.05;;;5.10;99.90;;;;;;5030519;28;20296;-73
2022/01/10 12:24:06;;;;;;;10.40;8.20;;;5.20;99.90;;;;;;5031005;28;20579;-74
2022/01/10 12:26:33;;;;;;;13.90;7.05;;;5.30;99.90;;;;;;5031609;28;20217;-74
2022/01/10 12:29:02;;;;;;;10.75;7.28;;;5.40;99.90;;;;;;5030796;28;20204;-72
2022/01/10 12:31:30;;;;;;;10.30;7.00;;;5.60;99.90;;;;;;5031147;28;20205;-73
2022/01/10 12:33:59;;;;;;;9.70;6.90;;;5.70;99.90;;;;;;5031002;28;20225;-73
2022/01/10 12:36:27;;;;;;;13.40;7.40;;;5.70;99.90;;;;;;5031167;28;20624;-74
2022/01/10 12:38:57;;;;;;;8.07;6.88;;;5.80;99.90;;;;;;5042018;28;20542;-74
2022/01/10 12:41:25;;;;;;;11.32;7.72;;;5.90;99.90;;;;;;5050729;28;20212;-74
2022/01/10 12:43:51;;;;;;;12.40;9.88;;;5.90;99.90;;;;;;5051019;28;20217;-73
2022/01/10 12:46:21;;;;;;;11.25;8.52;;;5.90;99.90;;;;;;5050463;28;20208;-72
2022/01/10 12:48:50;;;;;;;14.05;7.88;;;5.80;99.90;;;;;;5049573;28;20201;-72
2022/01/10 12:51:18;;;;;;;7.90;6.55;;;5.60;99.90;;;;;;5048673;28;20220;-72
2022/01/10 12:53:48;;;;;;;10.82;7.30;;;5.50;99.90;;;;;;5050313;28;20313;-72
2022/01/10 12:56:16;;;;;;;10.60;7.43;;;5.50;99.90;;;;;;5049603;28;20259;-72
2022/01/10 12:58:43;;;;;;;11.05;8.00;;;5.50;99.90;;;;;;5051172;28;20208;-73
2022/01/10 13:01:11;;;;;;;16.30;7.88;;;5.40;99.90;;;;;;5049784;28;20642;-74
2022/01/10 13:03:42;;;;;;;11.35;7.18;;;5.30;99.90;;;;;;5049682;28;20217;-73
2022/01/10 13:06:10;;;;;;;15.52;8.60;;;5.20;99.90;;;;;;5049510;28;20544;-72
2022/01/10 13:08:40;;;;;;;10.52;7.10;;;5.00;99.90;;;;;;5030533;28;20595;-70
2022/01/10 13:11:14;;;;;;;10.55;6.90;;;4.90;99.90;;;;;;5029957;28;20202;-72
2022/01/10 13:13:44;;;;;;;11.90;6.40;;;4.80;99.90;;;;;;5030209;28;20267;-73
2022/01/10 13:16:28;;;;;;;10.15;7.95;;;4.70;99.90;;;;;;5030545;28;20585;-73
2022/01/10 13:18:58;;;;;;;13.65;7.72;;;4.60;99.90;;;;;;5030035;28;20225;-72
2022/01/10 13:21:30;;;;;;;10.77;6.75;;;4.60;99.90;;;;;;5030438;28;20224;-72
2022/01/10 13:24:12;;;;;;;16.88;7.25;;;4.50;99.90;;;;;;5039291;28;20221;-72